Time;durP1;ratioP1;P1;durP2;ratioP2;P2;SDS_P1;SDS_P2;PMS_P1;PMS_P2;Temp;Humidity;BMP_temperature;BMP_pressure;BME280_temperature;BME280_humidity;BME280_pressure;Samples;Min_cycle;Max_cycle;Signal;HPM_P1;HPM_P2
2023/09/27 00:02:00;;;;;;;15.50;13.88;;;14.30;99.90;;;;;;5065635;28;21566;-66
2023/09/27 00:04:26;;;;;;;15.77;14.27;;;14.30;99.90;;;;;;5000770;28;20056;-66
2023/09/27 00:06:51;;;;;;;16.52;14.88;;;14.30;99.90;;;;;;5066524;28;20183;-66
2023/09/27 00:09:17;;;;;;;15.52;13.25;;;14.40;99.90;;;;;;5066482;28;20045;-66
2023/09/27 00:11:43;;;;;;;15.05;13.55;;;14.40;99.90;;;;;;5068601;28;20392;-66
2023/09/27 00:14:09;;;;;;;17.63;15.18;;;14.40;99.90;;;;;;5064461;28;20079;-66
2023/09/27 00:16:35;;;;;;;14.27;12.98;;;14.40;99.90;;;;;;5072355;28;20054;-66
2023/09/27 00:19:01;;;;;;;14.88;13.40;;;14.40;99.90;;;;;;5067494;28;20129;-66
2023/09/27 00:21:27;;;;;;;12.90;11.60;;;14.40;99.90;;;;;;5067803;28;20124;-66
2023/09/27 00:23:52;;;;;;;13.13;11.73;;;14.30;99.90;;;;;;5065692;28;20053;-66
2023/09/27 00:26:18;;;;;;;12.32;11.23;;;14.30;99.90;;;;;;5071506;28;20047;-66
2023/09/27 00:28:43;;;;;;;13.52;12.20;;;14.20;99.90;;;;;;5066857;28;20056;-66
2023/09/27 00:31:09;;;;;;;15.50;14.10;;;14.30;99.90;;;;;;5073357;28;20030;-66
2023/09/27 00:33:34;;;;;;;16.02;13.55;;;14.20;99.90;;;;;;4999162;28;20042;-66
2023/09/27 00:36:00;;;;;;;17.08;14.77;;;14.30;99.90;;;;;;4999717;28;20041;-66
2023/09/27 00:38:26;;;;;;;14.95;12.90;;;14.30;99.90;;;;;;4998884;28;20048;-66
2023/09/27 00:40:51;;;;;;;16.90;15.30;;;14.30;99.90;;;;;;5060949;28;20041;-66
2023/09/27 00:43:30;;;;;;;16.60;14.60;;;14.30;99.90;;;;;;5061805;28;21285;-66
2023/09/27 00:46:06;;;;;;;17.73;15.32;;;14.40;99.90;;;;;;5058452;28;20050;-66
2023/09/27 00:48:35;;;;;;;15.35;13.82;;;14.40;99.90;;;;;;5059790;28;20034;-66
2023/09/27 00:51:02;;;;;;;15.00;13.43;;;14.40;99.90;;;;;;5062380;28;20129;-66
2023/09/27 00:53:31;;;;;;;14.75;13.35;;;14.30;99.90;;;;;;5059563;28;20056;-66
2023/09/27 00:55:58;;;;;;;15.32;13.90;;;14.30;99.90;;;;;;5061657;28;20046;-66
2023/09/27 00:58:24;;;;;;;19.08;13.77;;;14.20;99.90;;;;;;5061253;28;20856;-66
2023/09/27 01:00:51;;;;;;;15.18;13.80;;;14.20;99.90;;;;;;4996222;28;20498;-66
2023/09/27 01:03:18;;;;;;;16.77;15.15;;;14.20;99.90;;;;;;5063259;28;20117;-66
2023/09/27 01:05:44;;;;;;;14.77;13.27;;;14.20;99.90;;;;;;5059467;28;20074;-66
2023/09/27 01:08:10;;;;;;;15.35;13.75;;;14.10;99.90;;;;;;5058911;28;20121;-66
2023/09/27 01:10:36;;;;;;;16.30;13.50;;;14.10;99.90;;;;;;5062576;28;20173;-66
2023/09/27 01:13:03;;;;;;;14.07;12.80;;;14.10;99.90;;;;;;5079786;28;20045;-66
2023/09/27 01:15:28;;;;;;;15.75;13.20;;;14.10;99.90;;;;;;5059141;28;20076;-66
2023/09/27 01:17:59;;;;;;;16.23;14.55;;;14.00;99.90;;;;;;5060886;28;20128;-66
2023/09/27 01:20:27;;;;;;;14.27;12.98;;;14.00;99.90;;;;;;4995683;28;20091;-66
2023/09/27 01:23:13;;;;;;;14.63;13.13;;;14.00;99.90;;;;;;5062571;28;20047;-66
2023/09/27 01:25:39;;;;;;;15.50;13.65;;;14.00;99.90;;;;;;4993333;28;20054;-66
2023/09/27 01:28:07;;;;;;;14.02;11.95;;;13.80;99.90;;;;;;4995428;28;20057;-66
2023/09/27 01:30:33;;;;;;;13.55;12.27;;;14.00;99.90;;;;;;5058552;28;20301;-66
2023/09/27 01:33:03;;;;;;;13.93;12.73;;;13.90;99.90;;;;;;5059482;28;20042;-66
2023/09/27 01:35:29;;;;;;;13.35;11.93;;;13.90;99.90;;;;;;5068348;28;20036;-66
2023/09/27 01:37:54;;;;;;;12.93;11.63;;;13.80;99.90;;;;;;5066615;28;20038;-66
2023/09/27 01:40:23;;;;;;;13.15;11.82;;;13.80;99.90;;;;;;5001493;28;20042;-66
2023/09/27 01:42:48;;;;;;;14.18;12.88;;;13.80;99.90;;;;;;5068735;28;20073;-66
2023/09/27 01:45:14;;;;;;;14.52;12.98;;;13.70;99.90;;;;;;5002922;28;20463;-66
2023/09/27 01:47:40;;;;;;;14.45;13.05;;;13.70;99.90;;;;;;5071285;28;20050;-66
2023/09/27 01:50:07;;;;;;;15.40;13.98;;;13.70;99.90;;;;;;5000525;28;20081;-66
2023/09/27 01:52:33;;;;;;;16.00;14.57;;;13.70;99.90;;;;;;5005062;28;20859;-66
2023/09/27 01:54:59;;;;;;;14.20;12.90;;;13.70;99.90;;;;;;5000720;28;20122;-66
2023/09/27 01:57:24;;;;;;;14.07;12.65;;;13.70;99.90;;;;;;5070288;28;20045;-66
2023/09/27 01:59:50;;;;;;;13.52;12.32;;;13.60;99.90;;;;;;5070737;28;21775;-66
2023/09/27 02:02:16;;;;;;;17.40;13.23;;;13.60;99.90;;;;;;5004847;28;20034;-66
2023/09/27 02:04:41;;;;;;;14.95;13.30;;;13.60;99.90;;;;;;4999942;28;20045;-66
2023/09/27 02:07:07;;;;;;;13.00;11.68;;;13.50;99.90;;;;;;5072315;28;20038;-66
2023/09/27 02:09:33;;;;;;;14.52;13.10;;;13.60;99.90;;;;;;5069557;28;20095;-66
2023/09/27 02:11:58;;;;;;;17.75;16.05;;;13.50;99.90;;;;;;5002430;28;20040;-66
2023/09/27 02:14:24;;;;;;;17.83;15.93;;;13.50;99.90;;;;;;5050966;28;20400;-66
2023/09/27 02:16:49;;;;;;;15.98;14.32;;;13.50;99.90;;;;;;5068822;28;20046;-66
2023/09/27 02:19:15;;;;;;;19.20;17.30;;;13.50;99.90;;;;;;5004219;28;20034;-66
2023/09/27 02:21:40;;;;;;;17.60;15.80;;;13.50;99.90;;;;;;5066787;28;20054;-66
2023/09/27 02:24:07;;;;;;;17.33;15.48;;;13.50;99.90;;;;;;5068791;28;20053;-66
2023/09/27 02:26:33;;;;;;;17.75;16.00;;;13.50;99.90;;;;;;5066317;28;20100;-66
2023/09/27 02:29:00;;;;;;;17.63;15.82;;;13.50;99.90;;;;;;5052648;28;20038;-66
2023/09/27 02:31:25;;;;;;;16.20;14.60;;;13.50;99.90;;;;;;5061960;28;20042;-66
2023/09/27 02:33:51;;;;;;;16.35;14.57;;;13.50;99.90;;;;;;4996814;28;20702;-66
2023/09/27 02:36:17;;;;;;;17.52;15.68;;;13.50;99.90;;;;;;5062703;28;20522;-66
2023/09/27 02:38:43;;;;;;;17.10;15.45;;;13.40;99.90;;;;;;5061396;28;20046;-66
2023/09/27 02:41:08;;;;;;;15.93;14.60;;;13.40;99.90;;;;;;4998344;28;20030;-66
2023/09/27 02:43:34;;;;;;;17.63;15.35;;;13.40;99.90;;;;;;5062217;28;20046;-66
2023/09/27 02:46:00;;;;;;;12.90;11.73;;;13.50;99.90;;;;;;4998126;28;20639;-66
2023/09/27 02:48:26;;;;;;;13.32;12.30;;;13.40;99.90;;;;;;5063154;28;20081;-66
2023/09/27 02:50:55;;;;;;;16.02;14.52;;;13.40;99.90;;;;;;5064858;28;20093;-66
2023/09/27 02:53:21;;;;;;;13.60;12.23;;;13.30;99.90;;;;;;4993854;28;20049;-66
2023/09/27 02:55:47;;;;;;;17.67;15.70;;;13.30;99.90;;;;;;4997757;28;20430;-66
2023/09/27 02:58:13;;;;;;;19.02;17.20;;;13.30;99.90;;;;;;5063421;28;20044;-66
2023/09/27 03:00:40;;;;;;;19.25;17.45;;;13.30;99.90;;;;;;5060982;28;20060;-66
2023/09/27 03:03:07;;;;;;;16.92;15.38;;;13.30;99.90;;;;;;5061452;28;20050;-66
2023/09/27 03:05:36;;;;;;;19.92;18.02;;;13.30;99.90;;;;;;5060798;28;20044;-66
2023/09/27 03:08:04;;;;;;;19.23;17.33;;;13.30;99.90;;;;;;5061558;28;20034;-65
2023/09/27 03:10:30;;;;;;;20.88;18.95;;;13.30;99.90;;;;;;5060571;28;20037;-65
2023/09/27 03:12:58;;;;;;;20.30;18.35;;;13.30;99.90;;;;;;5059953;28;20045;-66
2023/09/27 03:15:24;;;;;;;18.58;16.58;;;13.30;99.90;;;;;;4996721;28;20045;-66
2023/09/27 03:17:50;;;;;;;19.50;17.52;;;13.30;99.90;;;;;;4999919;28;20045;-66
2023/09/27 03:20:16;;;;;;;18.17;16.35;;;13.40;99.90;;;;;;5060490;28;20038;-66
2023/09/27 03:22:50;;;;;;;17.85;16.35;;;13.20;99.90;;;;;;5062061;28;20133;-66
2023/09/27 03:25:19;;;;;;;18.33;16.73;;;13.30;99.90;;;;;;4998612;28;20053;-66
2023/09/27 03:27:45;;;;;;;20.30;18.45;;;13.20;99.90;;;;;;5060431;28;20042;-66
2023/09/27 03:30:11;;;;;;;21.70;19.15;;;13.20;99.90;;;;;;4996638;28;20049;-66
2023/09/27 03:32:36;;;;;;;20.42;18.42;;;13.20;99.90;;;;;;5059351;28;20058;-66
2023/09/27 03:35:03;;;;;;;21.35;19.35;;;13.20;99.90;;;;;;5060617;28;20046;-66
2023/09/27 03:37:28;;;;;;;19.17;16.83;;;13.20;99.90;;;;;;5060026;28;20399;-65
2023/09/27 03:39:55;;;;;;;21.10;18.33;;;13.20;99.90;;;;;;5058573;28;20050;-66
2023/09/27 03:42:22;;;;;;;20.05;17.58;;;13.20;99.90;;;;;;5063591;28;20092;-66
2023/09/27 03:44:48;;;;;;;16.70;15.10;;;13.20;99.90;;;;;;5058629;28;20455;-66
2023/09/27 03:47:15;;;;;;;16.77;15.10;;;13.10;99.90;;;;;;5055851;28;20124;-66
2023/09/27 03:49:41;;;;;;;17.58;15.88;;;13.10;99.90;;;;;;5061486;28;20037;-66
2023/09/27 03:52:08;;;;;;;15.40;14.00;;;13.00;99.90;;;;;;4997940;28;20049;-66
2023/09/27 03:54:33;;;;;;;18.75;17.10;;;13.00;99.90;;;;;;5058938;28;20042;-66
2023/09/27 03:56:59;;;;;;;20.92;18.70;;;12.90;99.90;;;;;;4997463;28;20038;-66
2023/09/27 03:59:25;;;;;;;21.00;19.02;;;13.00;99.90;;;;;;5058186;28;20038;-66
2023/09/27 04:01:51;;;;;;;21.38;19.20;;;13.00;99.90;;;;;;5059349;28;20527;-66
2023/09/27 04:04:17;;;;;;;19.00;16.92;;;13.00;99.90;;;;;;5044101;28;20056;-66
2023/09/27 04:06:43;;;;;;;21.33;19.33;;;13.00;99.90;;;;;;4993284;28;20136;-66
2023/09/27 04:09:09;;;;;;;18.60;16.75;;;13.00;99.90;;;;;;5062176;28;20129;-66
2023/09/27 04:11:36;;;;;;;17.13;15.73;;;13.00;99.90;;;;;;5060940;28;20045;-66
2023/09/27 04:14:01;;;;;;;20.83;18.63;;;13.00;99.90;;;;;;5063776;28;20045;-66
2023/09/27 04:16:30;;;;;;;22.77;20.40;;;12.90;99.90;;;;;;5063159;28;20115;-66
2023/09/27 04:18:57;;;;;;;23.35;21.02;;;13.00;99.90;;;;;;5068514;28;20543;-66
2023/09/27 04:21:23;;;;;;;21.08;19.17;;;13.00;99.90;;;;;;5058853;28;20749;-66
2023/09/27 04:23:59;;;;;;;21.48;19.25;;;13.10;99.90;;;;;;5000956;28;20042;-66
2023/09/27 04:26:24;;;;;;;;;;;13.10;99.90;;;;;;4999539;28;20074;-66
2023/09/27 04:28:53;;;;;;;21.25;19.02;;;13.10;99.90;;;;;;4996348;28;19998;-66
2023/09/27 04:31:20;;;;;;;22.17;19.88;;;13.00;99.90;;;;;;5064104;28;20526;-66
2023/09/27 04:33:47;;;;;;;24.25;21.75;;;13.00;99.90;;;;;;5000726;28;20042;-66
2023/09/27 04:36:17;;;;;;;22.83;20.52;;;13.00;99.90;;;;;;5063080;28;20084;-66
2023/09/27 04:38:47;;;;;;;20.92;18.77;;;13.00;99.90;;;;;;5066564;28;20046;-66
2023/09/27 04:41:17;;;;;;;21.60;19.45;;;13.00;99.90;;;;;;5065938;28;20487;-66
2023/09/27 04:43:44;;;;;;;20.10;17.33;;;13.00;99.90;;;;;;5061855;28;20057;-66
2023/09/27 04:46:13;;;;;;;19.27;17.48;;;13.00;99.90;;;;;;4998466;28;20484;-66
2023/09/27 04:48:39;;;;;;;20.95;18.88;;;13.00;99.90;;;;;;5064492;28;20046;-66
2023/09/27 04:51:05;;;;;;;21.13;18.95;;;13.00;99.90;;;;;;5068222;28;20514;-66
2023/09/27 04:53:34;;;;;;;18.55;16.88;;;13.00;99.90;;;;;;4998364;28;20498;-66
2023/09/27 04:56:00;;;;;;;20.60;18.45;;;12.90;99.90;;;;;;5069111;28;20053;-66
2023/09/27 04:58:26;;;;;;;21.15;19.02;;;12.90;99.90;;;;;;4999695;28;20050;-66
2023/09/27 05:00:51;;;;;;;25.48;21.75;;;12.90;99.90;;;;;;5065520;28;20042;-66
2023/09/27 05:03:17;;;;;;;27.02;22.58;;;12.90;99.90;;;;;;4998577;28;20050;-66
2023/09/27 05:05:42;;;;;;;33.15;22.65;;;13.00;99.90;;;;;;5060641;28;20053;-66
2023/09/27 05:08:08;;;;;;;23.23;21.10;;;13.00;99.90;;;;;;4995074;28;20095;-66
2023/09/27 05:10:34;;;;;;;26.63;21.60;;;12.90;99.90;;;;;;5058357;28;20042;-66
2023/09/27 05:13:00;;;;;;;22.65;20.65;;;13.00;99.90;;;;;;4995500;28;20453;-66
2023/09/27 05:15:27;;;;;;;22.48;20.35;;;12.90;99.90;;;;;;4999003;28;20046;-66
2023/09/27 05:17:52;;;;;;;24.60;22.15;;;13.00;99.90;;;;;;5072161;28;20050;-66
2023/09/27 05:20:18;;;;;;;23.48;21.17;;;13.00;99.90;;;;;;4999425;28;20086;-66
2023/09/27 05:22:44;;;;;;;24.88;22.40;;;13.10;99.90;;;;;;5069460;28;20046;-66
2023/09/27 05:25:10;;;;;;;24.98;22.30;;;13.10;99.90;;;;;;5068973;28;20041;-66
2023/09/27 05:27:36;;;;;;;24.40;22.10;;;13.10;99.90;;;;;;5068998;28;20124;-66
2023/09/27 05:30:03;;;;;;;23.85;21.42;;;13.20;99.90;;;;;;5069584;28;20133;-66
2023/09/27 05:32:29;;;;;;;23.77;21.67;;;13.30;99.90;;;;;;5067960;28;20069;-66
2023/09/27 05:34:55;;;;;;;23.67;21.45;;;13.30;99.90;;;;;;5072741;28;21517;-66
2023/09/27 05:37:20;;;;;;;24.05;21.95;;;13.40;99.90;;;;;;5070070;28;20041;-66
2023/09/27 05:39:46;;;;;;;22.67;20.67;;;13.40;99.90;;;;;;5062186;28;20038;-66
2023/09/27 05:42:11;;;;;;;24.25;21.85;;;13.40;99.90;;;;;;5049142;28;20042;-66
2023/09/27 05:44:37;;;;;;;23.17;21.10;;;13.50;99.90;;;;;;5067746;28;20126;-66
2023/09/27 05:47:03;;;;;;;23.20;21.00;;;13.50;99.90;;;;;;5000413;28;20041;-66
2023/09/27 05:49:31;;;;;;;22.27;20.08;;;13.60;99.90;;;;;;5065121;28;20526;-66
2023/09/27 05:51:56;;;;;;;21.05;19.05;;;13.60;99.90;;;;;;5000836;28;20741;-66
2023/09/27 05:54:22;;;;;;;20.83;18.88;;;13.60;99.90;;;;;;5070237;28;20053;-66
2023/09/27 05:56:53;;;;;;;19.75;17.65;;;13.60;99.90;;;;;;5050046;28;20439;-66
2023/09/27 05:59:18;;;;;;;19.55;17.65;;;13.60;99.90;;;;;;4999466;28;20068;-66
2023/09/27 06:01:44;;;;;;;18.55;16.92;;;13.70;99.90;;;;;;5068465;28;20484;-66
2023/09/27 06:04:10;;;;;;;18.80;16.98;;;13.70;99.90;;;;;;5068731;28;20141;-66
2023/09/27 06:06:36;;;;;;;19.48;17.67;;;13.90;99.90;;;;;;5007673;28;20041;-66
2023/09/27 06:09:05;;;;;;;17.35;15.75;;;14.10;99.90;;;;;;5069528;28;20049;-66
2023/09/27 06:11:34;;;;;;;19.50;17.63;;;14.30;99.90;;;;;;5059479;28;20511;-66
2023/09/27 06:14:00;;;;;;;15.85;14.40;;;14.40;99.90;;;;;;5000489;28;20067;-66
2023/09/27 06:16:25;;;;;;;14.38;13.18;;;14.40;99.90;;;;;;5003013;28;20041;-66
2023/09/27 06:18:51;;;;;;;18.63;16.95;;;14.30;99.90;;;;;;5072346;28;20416;-66
2023/09/27 06:21:16;;;;;;;18.90;17.13;;;14.20;99.90;;;;;;5071667;28;20445;-66
2023/09/27 06:23:42;;;;;;;19.40;17.60;;;14.20;99.90;;;;;;5041244;28;20045;-66
2023/09/27 06:26:09;;;;;;;19.00;17.20;;;14.20;99.90;;;;;;5013784;27;20049;-66
2023/09/27 06:28:37;;;;;;;18.98;17.10;;;14.10;99.90;;;;;;5064289;28;20041;-66
2023/09/27 06:31:06;;;;;;;23.45;18.27;;;14.20;99.90;;;;;;5024310;27;20477;-67
2023/09/27 06:33:39;;;;;;;17.83;16.08;;;14.20;99.90;;;;;;5074368;28;20050;-66
2023/09/27 06:36:08;;;;;;;21.92;18.77;;;14.20;99.90;;;;;;5062543;28;20041;-66
2023/09/27 06:38:34;;;;;;;20.75;18.70;;;14.20;99.90;;;;;;4997442;28;20468;-66
2023/09/27 06:41:01;;;;;;;21.27;18.55;;;14.20;99.90;;;;;;5067223;28;20144;-66
2023/09/27 06:43:28;;;;;;;21.50;19.55;;;14.20;99.90;;;;;;5063799;28;20046;-66
2023/09/27 06:45:54;;;;;;;20.73;18.83;;;14.20;99.90;;;;;;5065480;28;20053;-66
2023/09/27 06:48:20;;;;;;;21.00;19.00;;;14.30;99.90;;;;;;4996089;28;20040;-66
2023/09/27 06:50:47;;;;;;;21.02;19.10;;;14.30;99.90;;;;;;4995322;28;20049;-66
2023/09/27 06:53:13;;;;;;;22.42;20.25;;;14.40;99.90;;;;;;5065539;28;20045;-66
2023/09/27 06:55:39;;;;;;;21.77;19.63;;;14.60;99.90;;;;;;5063821;28;20046;-66
2023/09/27 06:58:05;;;;;;;22.20;20.05;;;14.80;99.90;;;;;;5060814;28;20053;-66
2023/09/27 07:00:30;;;;;;;20.98;18.92;;;15.10;99.90;;;;;;5061700;28;20042;-66
2023/09/27 07:02:56;;;;;;;19.92;17.58;;;15.30;99.90;;;;;;5061446;28;20531;-66
2023/09/27 07:05:22;;;;;;;19.88;17.83;;;15.40;99.90;;;;;;5062804;28;20045;-66
2023/09/27 07:07:53;;;;;;;19.55;17.08;;;15.60;99.90;;;;;;5051960;28;20383;-66
2023/09/27 07:10:19;;;;;;;19.75;17.65;;;15.70;99.90;;;;;;5060587;28;20307;-66
2023/09/27 07:12:46;;;;;;;19.55;17.70;;;15.80;99.90;;;;;;5063158;28;20084;-66
2023/09/27 07:15:13;;;;;;;21.17;17.70;;;16.00;99.90;;;;;;5061968;28;20045;-66
2023/09/27 07:17:40;;;;;;;19.15;17.17;;;16.10;99.90;;;;;;4996915;28;20385;-66
2023/09/27 07:20:20;;;;;;;18.42;16.65;;;16.10;99.90;;;;;;5063108;28;20037;-66
2023/09/27 07:22:47;;;;;;;20.63;18.52;;;16.10;99.90;;;;;;4997148;28;20122;-67
2023/09/27 07:25:16;;;;;;;19.67;17.67;;;16.10;99.90;;;;;;5064654;28;20593;-66
2023/09/27 07:27:43;;;;;;;19.08;17.38;;;16.10;99.90;;;;;;5072436;28;20050;-66
2023/09/27 07:30:17;;;;;;;19.90;18.00;;;16.10;99.90;;;;;;4994067;28;20045;-66
2023/09/27 07:32:46;;;;;;;20.20;18.05;;;16.10;99.90;;;;;;5065762;28;20297;-66
2023/09/27 07:35:14;;;;;;;19.55;17.75;;;16.10;99.90;;;;;;5063510;28;20100;-66
2023/09/27 07:37:40;;;;;;;19.88;18.08;;;16.20;99.90;;;;;;5063311;28;20053;-66
2023/09/27 07:40:09;;;;;;;17.23;15.80;;;16.10;99.90;;;;;;5064208;28;20509;-66
2023/09/27 07:42:40;;;;;;;20.48;18.58;;;16.10;99.90;;;;;;4997735;28;20301;-66
2023/09/27 07:45:09;;;;;;;19.60;17.60;;;16.10;99.90;;;;;;5060250;28;20057;-66
2023/09/27 07:47:34;;;;;;;21.98;19.77;;;16.10;99.90;;;;;;5046562;28;20053;-66
2023/09/27 07:50:00;;;;;;;20.10;18.00;;;16.10;99.90;;;;;;5057225;28;20039;-66
2023/09/27 07:52:25;;;;;;;20.52;18.42;;;16.10;99.90;;;;;;5004902;28;20079;-66
2023/09/27 07:54:51;;;;;;;22.42;20.10;;;16.10;99.90;;;;;;5064447;28;20047;-66
2023/09/27 07:57:17;;;;;;;22.30;19.73;;;16.10;99.90;;;;;;5062614;28;20050;-66
2023/09/27 07:59:43;;;;;;;20.67;18.80;;;16.00;99.90;;;;;;4994246;28;20046;-66
2023/09/27 08:02:09;;;;;;;21.60;19.33;;;16.00;99.90;;;;;;5059461;28;20544;-66
2023/09/27 08:04:39;;;;;;;20.73;18.67;;;16.00;99.90;;;;;;5061373;28;20054;-66
2023/09/27 08:07:05;;;;;;;21.02;18.88;;;16.00;99.90;;;;;;4995629;28;20065;-66
2023/09/27 08:09:31;;;;;;;21.95;19.92;;;16.00;99.90;;;;;;5062232;28;20532;-66
2023/09/27 08:11:57;;;;;;;20.95;19.00;;;16.10;99.90;;;;;;5068459;28;20085;-66
2023/09/27 08:14:23;;;;;;;21.60;19.60;;;16.20;99.90;;;;;;5061303;28;20086;-67
2023/09/27 08:16:50;;;;;;;20.73;18.88;;;16.20;99.90;;;;;;4994430;28;20400;-67
2023/09/27 08:19:16;;;;;;;21.08;19.08;;;16.40;99.90;;;;;;4993478;28;20480;-67
2023/09/27 08:21:41;;;;;;;20.95;18.85;;;16.40;99.90;;;;;;5046279;28;20092;-67
2023/09/27 08:24:07;;;;;;;21.00;19.05;;;16.60;99.90;;;;;;5063083;28;20399;-67
2023/09/27 08:26:34;;;;;;;20.50;18.55;;;16.70;99.90;;;;;;5062840;28;20038;-66
2023/09/27 08:29:00;;;;;;;18.98;17.02;;;16.80;99.90;;;;;;5062250;28;20505;-66
2023/09/27 08:31:26;;;;;;;20.70;18.63;;;16.80;99.90;;;;;;5058836;28;20050;-67
2023/09/27 08:33:52;;;;;;;20.40;18.50;;;17.00;99.90;;;;;;4995056;28;20616;-67
2023/09/27 08:36:18;;;;;;;21.15;19.08;;;17.00;99.90;;;;;;4994321;28;20042;-67
2023/09/27 08:38:43;;;;;;;21.63;19.38;;;17.10;99.90;;;;;;4995918;28;20057;-66
2023/09/27 08:41:12;;;;;;;20.50;18.50;;;17.20;99.90;;;;;;5062875;28;20075;-66
2023/09/27 08:43:38;;;;;;;20.02;17.98;;;17.30;99.90;;;;;;5060260;28;20042;-66
2023/09/27 08:46:04;;;;;;;19.80;17.38;;;17.40;99.90;;;;;;4998960;28;20040;-66
2023/09/27 08:48:30;;;;;;;19.85;17.73;;;17.50;99.90;;;;;;4996105;28;20407;-66
2023/09/27 08:50:59;;;;;;;20.85;18.20;;;17.60;99.90;;;;;;4994788;28;20046;-66
2023/09/27 08:53:25;;;;;;;20.65;18.65;;;17.70;99.90;;;;;;5066466;28;20487;-66
2023/09/27 08:55:51;;;;;;;23.10;19.85;;;17.80;99.90;;;;;;4997634;28;20052;-67
2023/09/27 08:58:18;;;;;;;21.17;18.02;;;17.90;99.90;;;;;;5064933;28;20045;-67
2023/09/27 09:00:43;;;;;;;20.40;18.50;;;18.00;99.90;;;;;;5064549;28;20041;-67
2023/09/27 09:03:10;;;;;;;20.73;18.65;;;18.00;99.90;;;;;;4999535;28;20042;-66
2023/09/27 09:05:37;;;;;;;19.92;17.88;;;18.10;99.90;;;;;;5066140;28;20046;-66
2023/09/27 09:08:06;;;;;;;20.63;18.77;;;18.20;99.90;;;;;;5065809;28;20492;-66
2023/09/27 09:10:33;;;;;;;17.45;16.05;;;18.30;99.90;;;;;;5073456;28;20042;-66
2023/09/27 09:13:03;;;;;;;19.30;17.38;;;18.50;99.90;;;;;;5066505;28;20050;-66
2023/09/27 09:15:40;;;;;;;19.40;17.40;;;18.60;99.90;;;;;;5068464;28;20046;-66
2023/09/27 09:18:11;;;;;;;18.65;16.67;;;18.70;99.90;;;;;;4995931;28;20034;-67
2023/09/27 09:20:49;;;;;;;17.50;15.77;;;18.80;99.90;;;;;;5069849;28;20048;-66
2023/09/27 09:23:28;;;;;;;18.15;16.25;;;18.90;99.90;;;;;;5069018;28;20083;-66
2023/09/27 09:25:56;;;;;;;19.63;17.02;;;18.90;99.90;;;;;;5067597;28;20050;-66
2023/09/27 09:28:24;;;;;;;18.45;16.65;;;19.00;99.90;;;;;;4999365;28;20395;-67
2023/09/27 09:30:50;;;;;;;20.98;16.10;;;19.00;99.90;;;;;;5004309;28;20053;-66
2023/09/27 09:33:17;;;;;;;16.17;14.70;;;19.10;99.90;;;;;;5065361;28;20042;-66
2023/09/27 09:35:43;;;;;;;15.55;14.18;;;19.30;99.90;;;;;;5066974;28;20074;-67
2023/09/27 09:38:09;;;;;;;17.42;15.60;;;19.30;99.90;;;;;;5065866;28;20080;-67
2023/09/27 09:41:16;;;;;;;15.52;13.90;;;19.40;99.90;;;;;;5068686;28;20046;-67
2023/09/27 09:43:41;;;;;;;16.38;14.88;;;19.60;99.90;;;;;;5063271;28;20054;-67
2023/09/27 09:46:08;;;;;;;18.33;15.02;;;19.60;99.90;;;;;;5069169;28;20600;-67
2023/09/27 09:48:34;;;;;;;17.65;14.43;;;19.70;99.90;;;;;;5068275;28;20046;-67
2023/09/27 09:51:06;;;;;;;13.65;11.73;;;19.80;99.90;;;;;;4999872;28;20034;-67
2023/09/27 09:53:42;;;;;;;15.13;13.55;;;19.80;99.90;;;;;;5065155;28;20042;-67
2023/09/27 09:56:09;;;;;;;15.23;13.75;;;19.90;99.90;;;;;;5065770;28;20049;-67
2023/09/27 09:58:42;;;;;;;15.60;13.98;;;19.90;99.90;;;;;;5062741;28;20061;-66
2023/09/27 10:01:12;;;;;;;17.00;14.48;;;20.10;99.90;;;;;;5066212;28;20122;-66
2023/09/27 10:03:40;;;;;;;14.80;13.50;;;20.20;99.90;;;;;;5000925;28;20140;-67
2023/09/27 10:06:08;;;;;;;16.10;13.15;;;20.50;99.90;;;;;;4998764;28;20053;-67
2023/09/27 10:08:34;;;;;;;14.05;12.32;;;20.60;99.90;;;;;;5070054;28;20060;-67
2023/09/27 10:11:04;;;;;;;14.63;12.00;;;20.80;99.90;;;;;;5067750;28;20038;-66
2023/09/27 10:13:33;;;;;;;14.27;10.88;;;20.80;99.90;;;;;;5071244;28;20056;-67
2023/09/27 10:16:00;;;;;;;13.43;10.90;;;20.80;99.90;;;;;;5067308;28;20500;-67
2023/09/27 10:18:30;;;;;;;13.15;9.75;;;20.80;99.90;;;;;;5062833;28;20057;-67
2023/09/27 10:21:16;;;;;;;14.57;8.40;;;20.90;99.90;;;;;;5062427;28;20057;-67
2023/09/27 10:23:45;;;;;;;11.18;7.22;;;21.00;99.90;;;;;;5064886;28;20062;-66
2023/09/27 10:26:29;;;;;;;10.55;7.25;;;21.10;99.90;;;;;;5068188;28;20046;-66
2023/09/27 10:29:01;;;;;;;13.48;10.23;;;21.20;99.90;;;;;;5062164;28;20046;-66
2023/09/27 10:31:27;;;;;;;10.73;9.63;;;21.30;99.90;;;;;;5066994;28;20041;-67
2023/09/27 10:33:53;;;;;;;11.88;10.75;;;21.30;99.90;;;;;;4997626;28;20050;-66
2023/09/27 10:36:19;;;;;;;15.88;11.95;;;21.40;99.90;;;;;;5003971;28;20137;-66
2023/09/27 10:38:45;;;;;;;11.45;9.68;;;21.40;99.90;;;;;;5070468;28;20046;-66
2023/09/27 10:41:33;;;;;;;13.13;9.57;;;21.40;99.90;;;;;;5076563;27;20139;-67
2023/09/27 10:43:59;;;;;;;11.48;8.88;;;21.50;99.90;;;;;;5000871;28;20092;-67
2023/09/27 10:46:25;;;;;;;11.00;8.77;;;21.50;99.90;;;;;;5010444;28;20089;-67
2023/09/27 10:49:00;;;;;;;10.93;8.70;;;21.60;99.90;;;;;;5068749;28;20076;-67
2023/09/27 10:51:26;;;;;;;11.07;7.43;;;21.70;99.90;;;;;;5002476;28;20399;-67
2023/09/27 10:53:55;;;;;;;12.85;9.00;;;21.70;99.90;;;;;;5001405;28;20038;-67
2023/09/27 10:56:20;;;;;;;9.90;8.52;;;21.90;99.90;;;;;;5002196;28;20387;-67
2023/09/27 10:58:49;;;;;;;11.00;7.68;;;22.00;99.90;;;;;;5068934;28;20514;-67
2023/09/27 11:01:22;;;;;;;12.52;8.35;;;22.20;99.90;;;;;;5064703;28;20091;-66
2023/09/27 11:03:56;;;;;;;9.25;8.32;;;22.20;99.90;;;;;;4998274;28;20483;-66
2023/09/27 11:06:22;;;;;;;16.65;9.98;;;22.20;99.90;;;;;;5066419;28;20049;-66
2023/09/27 11:08:47;;;;;;;9.43;8.52;;;22.20;99.90;;;;;;5063589;28;20047;-67
2023/09/27 11:11:13;;;;;;;13.27;10.02;;;22.20;99.90;;;;;;5065575;28;20546;-67
2023/09/27 11:13:42;;;;;;;11.55;9.73;;;22.10;99.90;;;;;;4998632;28;20034;-67
2023/09/27 11:16:09;;;;;;;10.32;9.43;;;22.10;99.90;;;;;;5065062;28;20057;-67
2023/09/27 11:18:36;;;;;;;11.10;10.00;;;22.10;99.90;;;;;;5062949;28;20424;-67
2023/09/27 11:21:28;;;;;;;11.57;10.38;;;22.10;99.90;;;;;;5062962;28;20437;-67
2023/09/27 11:23:59;;;;;;;12.05;10.77;;;22.00;99.90;;;;;;5056175;28;20714;-67
2023/09/27 11:26:26;;;;;;;11.60;10.52;;;22.00;99.90;;;;;;5081569;28;20488;-67
2023/09/27 11:29:02;;;;;;;10.98;9.98;;;22.00;99.90;;;;;;4994494;28;20035;-67
2023/09/27 11:31:32;;;;;;;12.13;10.15;;;22.00;99.90;;;;;;4996951;28;20034;-67
2023/09/27 11:34:17;;;;;;;11.90;8.32;;;22.00;99.90;;;;;;4998915;28;20082;-67
2023/09/27 11:36:47;;;;;;;9.30;7.57;;;22.10;99.90;;;;;;5078437;28;20266;-67
2023/09/27 11:39:14;;;;;;;8.85;7.88;;;22.10;99.90;;;;;;5050651;28;20041;-67
2023/09/27 11:41:40;;;;;;;8.13;7.32;;;22.10;99.90;;;;;;5062929;28;20042;-67
2023/09/27 11:44:15;;;;;;;10.80;8.27;;;22.10;99.90;;;;;;4998030;28;20042;-67
2023/09/27 11:46:40;;;;;;;10.32;9.02;;;22.10;99.90;;;;;;4998918;28;20415;-67
2023/09/27 11:49:08;;;;;;;10.63;9.35;;;22.00;99.90;;;;;;5062887;28;20046;-67
2023/09/27 11:51:35;;;;;;;9.43;8.30;;;22.00;99.90;;;;;;5065820;28;20034;-67
2023/09/27 11:54:01;;;;;;;10.57;9.48;;;21.90;99.90;;;;;;5064896;28;20081;-67
2023/09/27 11:56:27;;;;;;;10.30;9.27;;;21.80;99.90;;;;;;5063114;28;20476;-67
2023/09/27 11:58:52;;;;;;;12.18;8.85;;;21.80;99.90;;;;;;4995638;28;20048;-67
2023/09/27 12:01:19;;;;;;;12.05;9.48;;;21.70;99.90;;;;;;5065395;28;20124;-67
2023/09/27 12:03:45;;;;;;;13.43;9.25;;;21.60;99.90;;;;;;5065489;28;20085;-67
2023/09/27 12:06:11;;;;;;;10.30;9.27;;;21.70;99.90;;;;;;4996512;28;20255;-67
2023/09/27 12:08:36;;;;;;;10.02;9.10;;;21.90;99.90;;;;;;5063961;28;20042;-67
2023/09/27 12:11:03;;;;;;;11.20;9.65;;;22.00;99.90;;;;;;4996977;28;20118;-67
2023/09/27 12:13:29;;;;;;;13.75;10.73;;;22.10;99.90;;;;;;4996001;28;20049;-67
2023/09/27 12:15:54;;;;;;;13.23;10.32;;;22.20;99.90;;;;;;4998899;28;20179;-67
2023/09/27 12:18:20;;;;;;;13.45;12.05;;;22.40;99.90;;;;;;5062170;28;20152;-67
2023/09/27 12:20:46;;;;;;;13.10;10.55;;;22.50;99.90;;;;;;5058508;28;20045;-67
2023/09/27 12:23:13;;;;;;;13.27;11.98;;;22.60;99.90;;;;;;5058991;28;20045;-67
2023/09/27 12:25:39;;;;;;;12.15;11.02;;;22.50;99.90;;;;;;5058245;28;20050;-67
2023/09/27 12:28:05;;;;;;;12.80;11.50;;;22.50;99.90;;;;;;5062860;28;20050;-67
2023/09/27 12:30:31;;;;;;;14.50;11.18;;;22.50;99.90;;;;;;5062074;28;20038;-67